createdAt,value
2023-05-10T00:01:51.906Z,100224.88
2023-05-10T00:04:19.868Z,100224.91
2023-05-10T00:06:47.660Z,100226.75
2023-05-10T00:09:15.929Z,100221.47
2023-05-10T00:11:44.981Z,100225.09
2023-05-10T00:14:13.861Z,100217.16
2023-05-10T00:16:41.908Z,100224.31
2023-05-10T00:19:09.809Z,100223.47
2023-05-10T00:21:37.595Z,100218.22
2023-05-10T00:24:06.785Z,100222.69
2023-05-10T00:26:34.475Z,100207.72
2023-05-10T00:29:03.717Z,100200.63
2023-05-10T00:31:31.509Z,100201.59
2023-05-10T00:33:59.302Z,100202.50
2023-05-10T00:36:27.097Z,100198.09
2023-05-10T00:38:54.873Z,100191.03
2023-05-10T00:41:22.982Z,100205.28
2023-05-10T00:43:51.179Z,100195.53
2023-05-10T00:46:20.530Z,100192.03
2023-05-10T00:48:48.502Z,100197.38
2023-05-10T00:51:16.585Z,100195.63
2023-05-10T00:53:45.862Z,100190.34
2023-05-10T00:56:14.033Z,100186.81
2023-05-10T00:58:42.286Z,100186.88
2023-05-10T01:01:10.417Z,100186.91
2023-05-10T01:03:39.716Z,100184.28
2023-05-10T01:06:08.113Z,100179.00
2023-05-10T01:08:36.238Z,100178.16
2023-05-10T01:11:04.068Z,100186.13
2023-05-10T01:13:35.811Z,100183.50
2023-05-10T01:16:04.493Z,100184.44
2023-05-10T01:18:35.166Z,100179.16
2023-05-10T01:21:17.151Z,100187.16
2023-05-10T01:24:10.687Z,100183.66
2023-05-10T01:27:02.687Z,100181.94
2023-05-10T01:30:14.622Z,100179.34
2023-05-10T01:32:52.399Z,100181.16
2023-05-10T01:35:29.951Z,100185.63
2023-05-10T01:38:04.124Z,100193.59
2023-05-10T01:40:37.577Z,100190.09
2023-05-10T01:43:10.464Z,100181.25
2023-05-10T01:45:46.142Z,100180.41
2023-05-10T01:48:16.883Z,100188.38
2023-05-10T01:50:47.432Z,100176.03
2023-05-10T01:53:20.723Z,100177.84
2023-05-10T01:55:50.766Z,100179.56
2023-05-10T01:58:23.154Z,100178.72
2023-05-10T02:00:52.937Z,100175.19
2023-05-10T02:03:25.297Z,100170.78
2023-05-10T02:05:55.781Z,100175.25
2023-05-10T02:08:24.683Z,100173.53
2023-05-10T02:10:54.817Z,100174.41
2023-05-10T02:13:25.401Z,100171.75
2023-05-10T02:15:55.241Z,100175.34
2023-05-10T02:18:25.890Z,100170.03
2023-05-10T02:20:56.062Z,100171.81
2023-05-10T02:23:25.418Z,100174.50
2023-05-10T02:25:54.340Z,100172.72
2023-05-10T02:28:23.780Z,100171.88
2023-05-10T02:30:53.280Z,100168.34
2023-05-10T02:33:23.150Z,100161.28
2023-05-10T02:35:53.038Z,100159.56
2023-05-10T02:38:23.622Z,100156.06
2023-05-10T02:40:53.151Z,100146.34
2023-05-10T02:43:23.447Z,100154.28
2023-05-10T02:45:51.644Z,100152.56
2023-05-10T02:48:19.784Z,100149.06
2023-05-10T02:50:52.456Z,100154.38
2023-05-10T02:53:25.738Z,100148.19
2023-05-10T02:55:59.226Z,100145.59
2023-05-10T02:58:27.599Z,100152.66
2023-05-10T03:00:55.822Z,100153.56
2023-05-10T03:03:23.561Z,100142.03
2023-05-10T03:05:54.750Z,100154.44
2023-05-10T03:08:24.455Z,100147.41
2023-05-10T03:11:03.830Z,100150.06
2023-05-10T03:13:47.758Z,100156.25
2023-05-10T03:16:20.647Z,100143.94
2023-05-10T03:18:56.598Z,100148.31
2023-05-10T03:21:28.046Z,100145.66
2023-05-10T03:24:01.365Z,100145.66
2023-05-10T03:26:30.834Z,100143.94
2023-05-10T03:29:08.622Z,100151.00
2023-05-10T03:31:36.808Z,100149.25
2023-05-10T03:34:04.584Z,100145.72
2023-05-10T03:36:32.325Z,100151.03
2023-05-10T03:39:01.844Z,100147.47
2023-05-10T03:41:29.588Z,100159.00
2023-05-10T03:43:57.447Z,100145.72
2023-05-10T03:46:25.248Z,100146.63
2023-05-10T03:48:53.064Z,100159.88
2023-05-10T03:51:21.511Z,100153.72
2023-05-10T03:53:49.939Z,100149.28
2023-05-10T03:56:19.020Z,100156.38
2023-05-10T03:58:47.139Z,100160.81
2023-05-10T04:01:14.864Z,100156.38
2023-05-10T04:03:42.591Z,100146.66
2023-05-10T04:06:12.776Z,100153.75
2023-05-10T04:08:40.562Z,100148.44
2023-05-10T04:11:09.468Z,100165.22
2023-05-10T04:13:39.180Z,100150.22
2023-05-10T04:16:07.450Z,100152.88
2023-05-10T04:18:35.761Z,100153.72
2023-05-10T04:21:03.680Z,100155.50
2023-05-10T04:23:31.478Z,100151.94
2023-05-10T04:26:02.710Z,100157.22
2023-05-10T04:28:30.523Z,100154.56
2023-05-10T04:31:04.809Z,100153.69
2023-05-10T04:33:32.883Z,100158.06
2023-05-10T04:36:00.861Z,100153.63
2023-05-10T04:38:28.752Z,100150.09
2023-05-10T04:40:56.576Z,100152.72
2023-05-10T04:43:24.266Z,100149.13
2023-05-10T04:45:52.357Z,100146.44
2023-05-10T04:48:21.731Z,100146.41
2023-05-10T04:50:49.445Z,100147.25
2023-05-10T04:53:17.500Z,100157.81
2023-05-10T04:55:45.310Z,100156.88
2023-05-10T04:58:13.085Z,100163.03
2023-05-10T05:00:40.978Z,100148.84
2023-05-10T05:03:08.808Z,100157.63
2023-05-10T05:05:38.100Z,100162.06
2023-05-10T05:08:05.968Z,100162.91
2023-05-10T05:10:33.881Z,100165.47
2023-05-10T05:13:01.637Z,100160.09
2023-05-10T05:15:29.444Z,100162.72
2023-05-10T05:17:57.178Z,100168.78
2023-05-10T05:20:25.062Z,100170.50
2023-05-10T05:22:54.217Z,100165.09
2023-05-10T05:25:22.106Z,100162.41
2023-05-10T05:27:49.946Z,100170.31
2023-05-10T05:30:18.275Z,100162.25
2023-05-10T05:32:48.024Z,100166.56
2023-05-10T05:35:16.208Z,100162.06
2023-05-10T05:37:44.189Z,100165.50
2023-05-10T05:40:15.978Z,100159.16
2023-05-10T05:42:43.941Z,100162.59
2023-05-10T05:45:14.072Z,100166.88
2023-05-10T05:47:42.207Z,100163.16
2023-05-10T05:50:10.930Z,100164.75
2023-05-10T05:52:38.732Z,100164.59
2023-05-10T05:55:07.109Z,100170.66
2023-05-10T05:57:36.270Z,100169.63
2023-05-10T06:00:05.126Z,100162.38
2023-05-10T06:02:40.584Z,100175.47
2023-05-10T06:05:09.478Z,100167.28
2023-05-10T06:07:37.318Z,100164.44
2023-05-10T06:10:05.660Z,100171.34
2023-05-10T06:12:33.756Z,100174.75
2023-05-10T06:15:03.240Z,100177.28
2023-05-10T06:17:31.014Z,100172.78
2023-05-10T06:19:58.825Z,100174.53
2023-05-10T06:22:26.920Z,100178.03
2023-05-10T06:24:54.761Z,100184.25
2023-05-10T06:27:22.703Z,100179.78
2023-05-10T06:29:52.199Z,100184.16
2023-05-10T06:32:25.798Z,100175.25
2023-05-10T06:34:53.566Z,100176.03
2023-05-10T06:37:21.422Z,100173.19
2023-05-10T06:39:49.536Z,100178.44
2023-05-10T06:42:17.319Z,100177.34
2023-05-10T06:44:47.842Z,100186.91
2023-05-10T06:47:15.515Z,100170.66
2023-05-10T06:49:44.688Z,100172.22
2023-05-10T06:52:12.427Z,100171.91
2023-05-10T06:54:40.306Z,100180.47
2023-05-10T06:57:16.058Z,100175.56
2023-05-10T06:59:51.458Z,100167.94
2023-05-10T07:02:19.643Z,100171.09
2023-05-10T07:04:50.108Z,100169.09
2023-05-10T07:07:17.860Z,100171.41
2023-05-10T07:09:45.963Z,100182.69
2023-05-10T07:12:15.227Z,100178.06
2023-05-10T07:14:43.830Z,100182.13
2023-05-10T07:17:11.709Z,100178.06
2023-05-10T07:19:39.555Z,100172.31
2023-05-10T07:22:08.728Z,100175.59
2023-05-10T07:24:36.540Z,100176.19
2023-05-10T07:27:05.236Z,100175.94
2023-05-10T07:29:33.063Z,100176.69
2023-05-10T07:32:01.302Z,100178.53
2023-05-10T07:34:31.097Z,100177.53
2023-05-10T07:37:00.193Z,100178.41
2023-05-10T07:39:29.682Z,100186.31
2023-05-10T07:41:57.971Z,100186.16
2023-05-10T07:44:25.712Z,100188.66
2023-05-10T07:46:53.670Z,100187.59
2023-05-10T07:49:21.408Z,100191.00
2023-05-10T07:51:49.454Z,100199.75
2023-05-10T07:54:17.400Z,100198.72
2023-05-10T07:56:48.249Z,100201.38
2023-05-10T07:59:18.078Z,100198.69
2023-05-10T08:01:46.266Z,100210.25
2023-05-10T08:04:14.111Z,100205.88
2023-05-10T08:06:42.045Z,100205.81
2023-05-10T08:09:10.512Z,100209.41
2023-05-10T08:11:38.242Z,100214.22
2023-05-10T08:14:07.490Z,100218.72
2023-05-10T08:16:35.386Z,100220.53
2023-05-10T08:19:03.665Z,100225.97
2023-05-10T08:21:32.170Z,100219.00
2023-05-10T08:24:00.970Z,100235.16
2023-05-10T08:26:28.826Z,100230.72
2023-05-10T08:28:56.943Z,100228.94
2023-05-10T08:31:26.102Z,100236.06
2023-05-10T08:33:54.003Z,100236.91
2023-05-10T08:36:22.950Z,100248.50
2023-05-10T08:38:53.000Z,100245.91
2023-05-10T08:41:22.651Z,100247.75
2023-05-10T08:43:51.697Z,100246.88
2023-05-10T08:46:21.231Z,100247.75
2023-05-10T08:48:52.334Z,100247.75
2023-05-10T08:51:22.153Z,100254.81
2023-05-10T08:53:50.302Z,100248.41
2023-05-10T08:56:18.832Z,100252.72
2023-05-10T08:58:47.028Z,100252.59
2023-05-10T09:01:17.122Z,100261.41
2023-05-10T09:03:45.892Z,100258.59
2023-05-10T09:06:15.357Z,100270.13
2023-05-10T09:08:44.241Z,100264.78
2023-05-10T09:11:13.708Z,100267.69
2023-05-10T09:13:41.433Z,100283.94
2023-05-10T09:16:20.490Z,100283.03
2023-05-10T09:18:50.386Z,100282.09
2023-05-10T09:21:21.600Z,100284.81
2023-05-10T09:23:51.106Z,100295.50
2023-05-10T09:26:23.768Z,100286.66
2023-05-10T09:28:56.500Z,100300.84
2023-05-10T09:31:24.836Z,100296.41
2023-05-10T09:33:53.464Z,100295.47
2023-05-10T09:36:22.724Z,100303.50
2023-05-10T09:38:51.874Z,100298.00
2023-05-10T09:41:21.180Z,100309.53
2023-05-10T09:43:49.022Z,100302.41
2023-05-10T09:46:17.412Z,100306.94
2023-05-10T09:48:46.618Z,100308.81
2023-05-10T09:51:22.534Z,100309.59
2023-05-10T09:53:55.381Z,100313.25
2023-05-10T09:56:37.180Z,100314.13
2023-05-10T09:59:08.294Z,100325.59
2023-05-10T10:01:38.700Z,100326.50
2023-05-10T10:04:19.049Z,100332.69
2023-05-10T10:07:05.638Z,100331.59
2023-05-10T10:09:39.661Z,100329.69
2023-05-10T10:12:10.808Z,100330.56
2023-05-10T10:14:45.070Z,100329.63
2023-05-10T10:17:14.857Z,100327.88
2023-05-10T10:19:49.070Z,100333.28
2023-05-10T10:22:29.105Z,100336.00
2023-05-10T10:25:02.052Z,100340.38
2023-05-10T10:27:42.320Z,100338.56
2023-05-10T10:30:26.129Z,100335.06
2023-05-10T10:33:27.248Z,100341.16
2023-05-10T10:36:01.459Z,100348.09
2023-05-10T10:39:00.733Z,100342.63
2023-05-10T10:41:32.419Z,100351.47
2023-05-10T10:44:36.244Z,100347.88
2023-05-10T10:47:31.712Z,100348.66
2023-05-10T10:50:15.178Z,100360.19
2023-05-10T10:52:49.009Z,100361.84
2023-05-10T10:55:23.542Z,100356.56
2023-05-10T10:57:53.675Z,100366.28
2023-05-10T11:00:30.534Z,100359.97
2023-05-10T11:03:05.334Z,100366.94
2023-05-10T11:05:42.312Z,100364.16
2023-05-10T11:08:18.325Z,100367.66
2023-05-10T11:11:10.742Z,100371.16
2023-05-10T11:13:43.338Z,100366.69
2023-05-10T11:16:20.124Z,100365.84
2023-05-10T11:18:56.097Z,100373.06
2023-05-10T11:21:24.333Z,100375.72
2023-05-10T11:23:55.440Z,100379.16
2023-05-10T11:26:26.530Z,100375.44
2023-05-10T11:28:57.290Z,100377.03
2023-05-10T11:31:27.645Z,100378.59
2023-05-10T11:33:57.722Z,100389.09
2023-05-10T11:36:29.017Z,100387.13
2023-05-10T11:38:57.850Z,100383.53
2023-05-10T11:41:28.744Z,100383.41
2023-05-10T11:43:57.923Z,100395.84
2023-05-10T11:46:27.655Z,100386.94
2023-05-10T11:48:57.807Z,100395.03
2023-05-10T11:51:27.008Z,100394.97
2023-05-10T11:53:56.230Z,100401.22
2023-05-10T11:56:24.398Z,100399.47
2023-05-10T11:58:57.484Z,100394.94
2023-05-10T12:01:25.851Z,100399.22
2023-05-10T12:03:56.006Z,100400.88
2023-05-10T12:06:24.068Z,100398.97
2023-05-10T12:08:53.587Z,100403.34
2023-05-10T12:11:22.723Z,100407.78
2023-05-10T12:13:50.927Z,100411.28
2023-05-10T12:16:21.792Z,100407.78
2023-05-10T12:18:52.032Z,100408.63
2023-05-10T12:21:23.426Z,100414.63
2023-05-10T12:23:53.770Z,100418.91
2023-05-10T12:26:24.288Z,100413.38
2023-05-10T12:28:52.234Z,100415.03
2023-05-10T12:31:21.774Z,100421.28
2023-05-10T12:33:50.386Z,100424.97
2023-05-10T12:36:19.023Z,100422.56
2023-05-10T12:38:49.191Z,100428.03
2023-05-10T12:41:18.136Z,100425.44
2023-05-10T12:43:47.476Z,100433.50
2023-05-10T12:46:17.023Z,100425.66
2023-05-10T12:48:47.293Z,100434.69
2023-05-10T12:51:18.239Z,100437.44
2023-05-10T12:53:49.743Z,100431.19
2023-05-10T12:56:17.653Z,100438.25
2023-05-10T12:58:49.115Z,100438.25
2023-05-10T13:01:17.161Z,100440.97
2023-05-10T13:03:46.299Z,100440.25
2023-05-10T13:06:15.549Z,100448.50
2023-05-10T13:08:43.465Z,100453.19
2023-05-10T13:11:11.301Z,100448.06
2023-05-10T13:13:39.101Z,100452.81
2023-05-10T13:16:07.632Z,100444.03
2023-05-10T13:18:35.453Z,100449.56
2023-05-10T13:21:04.984Z,100442.56
2023-05-10T13:23:32.879Z,100448.81
2023-05-10T13:26:00.762Z,100451.47
2023-05-10T13:28:28.743Z,100448.69
2023-05-10T13:30:56.715Z,100446.84
2023-05-10T13:33:24.567Z,100442.34
2023-05-10T13:35:54.423Z,100442.22
2023-05-10T13:38:24.886Z,100448.25
2023-05-10T13:40:53.899Z,100440.88
2023-05-10T13:43:22.023Z,100446.00
2023-05-10T13:45:49.842Z,100447.66
2023-05-10T13:48:17.924Z,100446.41
2023-05-10T13:50:46.133Z,100442.59
2023-05-10T13:53:14.165Z,100458.47
2023-05-10T13:55:43.656Z,100444.81
2023-05-10T13:58:11.651Z,100452.56
2023-05-10T14:00:39.528Z,100453.25
2023-05-10T14:03:10.176Z,100452.09
2023-05-10T14:05:38.332Z,100452.78
2023-05-10T14:08:06.283Z,100437.34
2023-05-10T14:10:34.241Z,100447.91
2023-05-10T14:13:04.183Z,100448.53
2023-05-10T14:15:32.080Z,100446.56
2023-05-10T14:18:00.091Z,100454.38
2023-05-10T14:20:28.300Z,100447.16
2023-05-10T14:22:56.465Z,100450.63
2023-05-10T14:25:25.174Z,100446.06
2023-05-10T14:27:55.810Z,100443.28
2023-05-10T14:30:25.196Z,100448.50
2023-05-10T14:32:55.040Z,100435.94
2023-05-10T14:35:23.443Z,100443.97
2023-05-10T14:37:51.731Z,100442.91
2023-05-10T14:40:19.802Z,100439.25
2023-05-10T14:42:48.143Z,100441.81
2023-05-10T14:45:16.392Z,100437.34
2023-05-10T14:47:45.938Z,100437.31
2023-05-10T14:50:21.707Z,100437.31
2023-05-10T14:53:01.900Z,100442.81
2023-05-10T14:55:30.034Z,100442.97
2023-05-10T14:57:59.392Z,100446.72
2023-05-10T15:00:27.739Z,100445.75
2023-05-10T15:02:57.404Z,100437.72
2023-05-10T15:05:26.126Z,100449.50
2023-05-10T15:07:54.385Z,100443.44
2023-05-10T15:10:22.717Z,100446.00
2023-05-10T15:12:50.668Z,100445.97
2023-05-10T15:15:18.781Z,100453.97
2023-05-10T15:17:46.960Z,100452.97
2023-05-10T15:20:16.218Z,100451.94
2023-05-10T15:22:44.044Z,100450.88
2023-05-10T15:25:12.348Z,100450.75
2023-05-10T15:27:40.220Z,100439.84
2023-05-10T15:30:09.562Z,100449.56
2023-05-10T15:32:38.092Z,100445.88
2023-05-10T15:35:06.882Z,100439.47
2023-05-10T15:37:36.698Z,100446.53
2023-05-10T15:40:05.173Z,100451.91
2023-05-10T15:42:33.333Z,100450.88
2023-05-10T15:45:01.419Z,100444.53
2023-05-10T15:47:29.553Z,100450.88
2023-05-10T15:49:57.731Z,100452.50
2023-05-10T15:52:25.861Z,100452.38
2023-05-10T15:54:55.127Z,100450.34
2023-05-10T15:57:22.872Z,100455.47
2023-05-10T15:59:50.900Z,100448.16
2023-05-10T16:02:19.568Z,100449.09
2023-05-10T16:04:47.532Z,100453.63
2023-05-10T16:07:15.402Z,100452.81
2023-05-10T16:09:43.433Z,100447.53
2023-05-10T16:12:13.040Z,100451.22
2023-05-10T16:14:40.834Z,100453.03
2023-05-10T16:17:09.155Z,100458.50
2023-05-10T16:19:37.021Z,100450.50
2023-05-10T16:22:04.948Z,100449.59
2023-05-10T16:24:32.860Z,100455.94
2023-05-10T16:27:00.859Z,100458.72
2023-05-10T16:29:30.001Z,100459.69
2023-05-10T16:31:57.771Z,100455.13
2023-05-10T16:34:25.963Z,100464.88
2023-05-10T16:36:53.830Z,100453.09
2023-05-10T16:39:22.548Z,100462.81
2023-05-10T16:41:50.415Z,100467.28
2023-05-10T16:44:20.297Z,100466.41
2023-05-10T16:46:49.981Z,100465.72
2023-05-10T16:49:17.848Z,100473.13
2023-05-10T16:51:45.790Z,100468.78
2023-05-10T16:54:13.553Z,100471.66
2023-05-10T16:56:41.616Z,100475.22
2023-05-10T16:59:09.694Z,100474.34
2023-05-10T17:01:37.524Z,100481.50
2023-05-10T17:04:06.889Z,100479.88
2023-05-10T17:06:36.833Z,100479.19
2023-05-10T17:09:05.681Z,100482.84
2023-05-10T17:11:33.740Z,100480.28
2023-05-10T17:14:03.021Z,100489.28
2023-05-10T17:16:31.308Z,100486.66
2023-05-10T17:18:59.336Z,100492.97
2023-05-10T17:21:28.874Z,100496.63
2023-05-10T17:23:56.690Z,100493.25
2023-05-10T17:26:24.546Z,100490.66
2023-05-10T17:28:54.138Z,100499.66
2023-05-10T17:31:22.008Z,100496.25
2023-05-10T17:33:49.956Z,100508.97
2023-05-10T17:36:17.653Z,100498.44
2023-05-10T17:38:46.930Z,100503.03
2023-05-10T17:41:15.121Z,100505.06
2023-05-10T17:43:42.917Z,100508.78
2023-05-10T17:46:10.873Z,100516.13
2023-05-10T17:48:38.693Z,100516.25
2023-05-10T17:51:06.620Z,100520.00
2023-05-10T17:53:35.137Z,100525.47
2023-05-10T17:56:04.464Z,100522.81
2023-05-10T17:58:32.222Z,100529.09
2023-05-10T18:01:00.272Z,100523.97
2023-05-10T18:03:28.162Z,100528.66
2023-05-10T18:05:56.111Z,100527.19
2023-05-10T18:08:27.097Z,100527.28
2023-05-10T18:10:55.043Z,100531.03
2023-05-10T18:13:24.378Z,100529.38
2023-05-10T18:15:52.406Z,100529.59
2023-05-10T18:18:20.405Z,100528.84
2023-05-10T18:20:48.316Z,100533.44
2023-05-10T18:23:16.179Z,100538.94
2023-05-10T18:25:43.985Z,100545.41
2023-05-10T18:28:11.845Z,100539.31
2023-05-10T18:30:41.835Z,100544.84
2023-05-10T18:33:12.268Z,100547.69
2023-05-10T18:35:41.178Z,100546.06
2023-05-10T18:38:09.819Z,100563.22
2023-05-10T18:40:37.771Z,100561.56
2023-05-10T18:43:05.617Z,100564.44
2023-05-10T18:45:33.666Z,100562.75
2023-05-10T18:48:03.147Z,100567.34
2023-05-10T18:50:31.041Z,100563.09
2023-05-10T18:52:59.030Z,100570.38
2023-05-10T18:55:27.077Z,100576.75
2023-05-10T18:57:54.994Z,100584.00
2023-05-10T19:00:22.844Z,100569.84
2023-05-10T19:02:50.997Z,100582.47
2023-05-10T19:05:20.945Z,100575.41
2023-05-10T19:07:48.768Z,100576.44
2023-05-10T19:10:16.730Z,100590.81
2023-05-10T19:12:44.582Z,100587.38
2023-05-10T19:15:12.951Z,100583.06
2023-05-10T19:17:41.778Z,100586.75
2023-05-10T19:20:10.740Z,100593.97
2023-05-10T19:25:13.144Z,100590.66
2023-05-10T19:27:41.119Z,100602.31
2023-05-10T19:30:10.139Z,100594.41
2023-05-10T19:32:38.088Z,100595.41
2023-05-10T19:35:06.916Z,100606.19
2023-05-10T19:37:34.800Z,100600.06
2023-05-10T19:40:04.835Z,100600.19
2023-05-10T19:42:32.685Z,100596.72
2023-05-10T19:45:01.273Z,100602.19
2023-05-10T19:47:29.245Z,100602.28
2023-05-10T19:49:57.379Z,100597.00
2023-05-10T19:52:25.432Z,100611.31
2023-05-10T19:54:53.369Z,100610.53
2023-05-10T19:57:22.593Z,100605.31
2023-05-10T19:59:50.640Z,100600.88
2023-05-10T20:02:18.503Z,100604.53
2023-05-10T20:04:46.671Z,100608.13
2023-05-10T20:07:14.671Z,100611.75
2023-05-10T20:09:44.375Z,100605.53
2023-05-10T20:12:12.681Z,100616.28
2023-05-10T20:14:41.964Z,100605.66
2023-05-10T20:17:09.853Z,100605.69
2023-05-10T20:19:37.993Z,100611.97
2023-05-10T20:22:06.028Z,100607.56
2023-05-10T20:24:33.859Z,100612.91
2023-05-10T20:27:02.670Z,100613.84
2023-05-10T20:29:30.529Z,100605.94
2023-05-10T20:31:59.849Z,100617.53
2023-05-10T20:34:27.737Z,100614.03
2023-05-10T20:36:55.752Z,100613.19
2023-05-10T20:39:23.781Z,100611.47
2023-05-10T20:41:52.594Z,100615.91
2023-05-10T20:44:20.529Z,100620.44
2023-05-10T20:46:48.604Z,100616.91
2023-05-10T20:49:18.061Z,100619.59
2023-05-10T20:51:45.957Z,100617.00
2023-05-10T20:54:14.075Z,100624.16
2023-05-10T20:56:41.921Z,100615.34
2023-05-10T20:59:09.818Z,100613.59
2023-05-10T21:01:37.718Z,100618.97
2023-05-10T21:04:05.626Z,100619.00
2023-05-10T21:06:34.884Z,100616.34
2023-05-10T21:09:02.793Z,100612.88
2023-05-10T21:11:30.660Z,100620.03
2023-05-10T21:13:58.540Z,100623.69
2023-05-10T21:16:26.543Z,100625.53
2023-05-10T21:18:54.590Z,100624.72
2023-05-10T21:21:22.500Z,100628.28
2023-05-10T21:23:51.810Z,100626.59
2023-05-10T21:26:19.773Z,100623.03
2023-05-10T21:28:47.662Z,100627.53
2023-05-10T21:31:16.106Z,100617.78
2023-05-10T21:33:44.112Z,100622.22
2023-05-10T21:36:12.173Z,100624.94
2023-05-10T21:38:41.084Z,100624.06
2023-05-10T21:41:10.380Z,100625.91
2023-05-10T21:43:38.468Z,100633.03
2023-05-10T21:46:07.308Z,100633.94
2023-05-10T21:48:35.498Z,100634.88
2023-05-10T21:51:03.593Z,100640.22
2023-05-10T21:53:31.627Z,100640.22
2023-05-10T21:55:59.497Z,100642.00
2023-05-10T21:58:28.837Z,100630.47
2023-05-10T22:00:56.809Z,100640.28
2023-05-10T22:03:25.156Z,100642.06
2023-05-10T22:05:53.260Z,100641.19
2023-05-10T22:08:21.118Z,100638.53
2023-05-10T22:10:48.917Z,100635.84
2023-05-10T22:13:17.100Z,100637.69
2023-05-10T22:15:46.460Z,100641.28
2023-05-10T22:18:14.342Z,100634.16
2023-05-10T22:20:43.493Z,100641.28
2023-05-10T22:23:11.362Z,100643.97
2023-05-10T22:25:39.250Z,100637.75
2023-05-10T22:28:07.492Z,100638.66
2023-05-10T22:30:35.297Z,100633.34
2023-05-10T22:33:04.833Z,100639.53
2023-05-10T22:35:32.923Z,100637.78
2023-05-10T22:38:00.846Z,100636.91
2023-05-10T22:40:28.700Z,100635.16
2023-05-10T22:42:56.557Z,100637.84
2023-05-10T22:45:24.540Z,100642.28
2023-05-10T22:47:52.442Z,100643.19
2023-05-10T22:50:22.254Z,100649.41
2023-05-10T22:52:50.164Z,100648.53
2023-05-10T22:55:18.707Z,100648.53
2023-05-10T22:57:46.704Z,100647.66
2023-05-10T23:00:15.636Z,100643.22
2023-05-10T23:02:43.819Z,100644.09
2023-05-10T23:05:11.770Z,100654.75
2023-05-10T23:07:41.214Z,100650.31
2023-05-10T23:10:09.660Z,100653.88
2023-05-10T23:12:37.601Z,100657.44
2023-05-10T23:15:06.379Z,100664.56
2023-05-10T23:17:34.227Z,100661.00
2023-05-10T23:20:02.328Z,100657.44
2023-05-10T23:22:30.205Z,100664.56
2023-05-10T23:24:59.509Z,100671.69
2023-05-10T23:27:29.671Z,100661.03
2023-05-10T23:29:57.504Z,100668.09
2023-05-10T23:32:25.298Z,100664.53
2023-05-10T23:34:53.292Z,100660.94
2023-05-10T23:37:21.280Z,100657.38
2023-05-10T23:39:49.076Z,100660.91
2023-05-10T23:42:18.154Z,100659.06
2023-05-10T23:44:46.858Z,100657.31
2023-05-10T23:47:14.596Z,100654.63
2023-05-10T23:49:43.015Z,100663.50
2023-05-10T23:52:11.012Z,100654.63
2023-05-10T23:54:38.756Z,100658.16
2023-05-10T23:57:06.446Z,100657.22
2023-05-10T23:59:35.587Z,100657.22
